createdAt,value
2022-10-31T00:01:29.622Z,95936.59
2022-10-31T00:03:57.674Z,95931.53
2022-10-31T00:06:25.568Z,95935.88
2022-10-31T00:08:55.710Z,95931.03
2022-10-31T00:11:24.138Z,95932.09
2022-10-31T00:13:53.717Z,95933.69
2022-10-31T00:16:22.828Z,95931.44
2022-10-31T00:18:51.243Z,95924.91
2022-10-31T00:21:21.411Z,95931.38
2022-10-31T00:23:49.459Z,95931.06
2022-10-31T00:26:17.158Z,95930.56
2022-10-31T00:28:45.173Z,95927.06
2022-10-31T00:31:15.386Z,95920.81
2022-10-31T00:33:43.628Z,95925.41
2022-10-31T00:36:15.244Z,95924.81
2022-10-31T00:38:42.937Z,95925.31
2022-10-31T00:41:11.012Z,95925.25
2022-10-31T00:43:38.623Z,95919.03
2022-10-31T00:46:06.745Z,95915.31
2022-10-31T00:48:35.707Z,95921.03
2022-10-31T00:51:04.373Z,95920.72
2022-10-31T00:53:32.022Z,95919.16
2022-10-31T00:55:59.631Z,95924.28
2022-10-31T00:58:29.478Z,95920.00
2022-10-31T01:00:57.372Z,95916.75
2022-10-31T01:03:26.171Z,95923.47
2022-10-31T01:06:06.000Z,95913.75
2022-10-31T01:08:33.636Z,95916.69
2022-10-31T01:11:03.510Z,95915.81
2022-10-31T01:13:31.512Z,95910.09
2022-10-31T01:16:00.315Z,95914.13
2022-10-31T01:18:28.840Z,95917.06
2022-10-31T01:21:02.395Z,95907.09
2022-10-31T01:23:30.570Z,95917.44
2022-10-31T01:26:10.243Z,95912.91
2022-10-31T01:28:40.044Z,95921.78
2022-10-31T01:31:10.334Z,95919.34
2022-10-31T01:33:38.876Z,95921.69
2022-10-31T01:36:16.809Z,95922.47
2022-10-31T01:38:46.535Z,95925.44
2022-10-31T01:41:16.105Z,95916.03
2022-10-31T01:43:45.524Z,95917.91
2022-10-31T01:46:13.993Z,95915.78
2022-10-31T01:48:43.543Z,95916.00
2022-10-31T01:51:16.944Z,95913.56
2022-10-31T01:53:46.542Z,95913.25
2022-10-31T01:56:17.230Z,95916.19
2022-10-31T01:58:47.475Z,95918.97
2022-10-31T02:01:18.610Z,95917.06
2022-10-31T02:03:49.387Z,95916.81
2022-10-31T02:06:29.789Z,95906.81
2022-10-31T02:09:00.786Z,95906.78
2022-10-31T02:11:31.482Z,95914.63
2022-10-31T02:14:01.045Z,95919.53
2022-10-31T02:16:28.718Z,95912.00
2022-10-31T02:18:57.360Z,95907.91
2022-10-31T02:21:35.855Z,95909.00
2022-10-31T02:24:43.306Z,95912.44
2022-10-31T02:27:24.208Z,95899.75
2022-10-31T02:30:08.264Z,95906.16
2022-10-31T02:32:48.328Z,95908.53
2022-10-31T02:35:27.706Z,95917.44
2022-10-31T02:38:04.124Z,95909.22
2022-10-31T02:40:37.648Z,95922.16
2022-10-31T02:43:11.941Z,95922.97
2022-10-31T02:45:49.581Z,95921.81
2022-10-31T02:48:22.038Z,95924.78
2022-10-31T02:50:56.212Z,95914.47
2022-10-31T02:53:23.924Z,95920.19
2022-10-31T02:55:58.290Z,95917.84
2022-10-31T02:58:29.289Z,95913.06
2022-10-31T03:01:12.241Z,95915.75
2022-10-31T03:03:54.541Z,95906.53
2022-10-31T03:06:28.793Z,95911.13
2022-10-31T03:09:04.348Z,95917.00
2022-10-31T03:11:35.595Z,95914.16
2022-10-31T03:14:11.237Z,95914.94
2022-10-31T03:16:47.636Z,95915.72
2022-10-31T03:19:21.544Z,95912.69
2022-10-31T03:21:54.755Z,95913.25
2022-10-31T03:24:24.532Z,95919.47
2022-10-31T03:26:56.952Z,95923.19
2022-10-31T03:29:28.999Z,95918.84
2022-10-31T03:32:00.047Z,95923.69
2022-10-31T03:34:31.962Z,95919.91
2022-10-31T03:37:03.917Z,95918.25
2022-10-31T03:39:32.900Z,95922.00
2022-10-31T03:42:13.209Z,95923.56
2022-10-31T03:44:45.473Z,95920.13
2022-10-31T03:47:13.275Z,95914.66
2022-10-31T03:49:42.609Z,95919.75
2022-10-31T03:52:18.028Z,95923.72
2022-10-31T03:54:47.494Z,95923.22
2022-10-31T03:57:21.021Z,95915.94
2022-10-31T03:59:53.922Z,95916.44
2022-10-31T04:02:28.070Z,95923.75
2022-10-31T04:04:58.386Z,95917.50
2022-10-31T04:07:30.471Z,95919.41
2022-10-31T04:10:00.826Z,95905.41
2022-10-31T04:12:30.209Z,95916.44
2022-10-31T04:14:59.315Z,95922.25
2022-10-31T04:17:31.748Z,95921.66
2022-10-31T04:20:02.832Z,95920.31
2022-10-31T04:22:32.938Z,95924.03
2022-10-31T04:25:00.556Z,95912.28
2022-10-31T04:27:28.147Z,95923.28
2022-10-31T04:29:55.767Z,95923.56
2022-10-31T04:32:23.374Z,95929.78
2022-10-31T04:34:51.021Z,95924.88
2022-10-31T04:37:20.003Z,95926.03
2022-10-31T04:39:47.608Z,95928.09
2022-10-31T04:42:15.249Z,95933.50
2022-10-31T04:44:42.867Z,95927.97
2022-10-31T04:47:10.484Z,95932.03
2022-10-31T04:49:38.629Z,95922.41
2022-10-31T04:52:06.245Z,95926.56
2022-10-31T04:54:35.513Z,95928.78
2022-10-31T04:57:03.143Z,95932.28
2022-10-31T04:59:30.785Z,95927.31
2022-10-31T05:01:58.449Z,95933.84
2022-10-31T05:04:26.112Z,95929.59
2022-10-31T05:06:53.740Z,95929.19
2022-10-31T05:09:21.347Z,95922.34
2022-10-31T05:11:50.345Z,95917.75
2022-10-31T05:14:17.949Z,95923.88
2022-10-31T05:16:48.439Z,95929.53
2022-10-31T05:19:16.094Z,95924.41
2022-10-31T05:21:43.764Z,95916.25
2022-10-31T05:24:13.528Z,95917.38
2022-10-31T05:26:43.826Z,95920.63
2022-10-31T05:29:12.934Z,95917.31
2022-10-31T05:31:40.561Z,95914.94
2022-10-31T05:34:08.203Z,95908.47
2022-10-31T05:36:35.803Z,95914.13
2022-10-31T05:39:03.437Z,95914.03
2022-10-31T05:41:31.298Z,95913.97
2022-10-31T05:43:58.940Z,95909.34
2022-10-31T05:46:27.967Z,95912.75
2022-10-31T05:48:57.570Z,95910.63
2022-10-31T05:51:29.288Z,95906.31
2022-10-31T05:53:56.983Z,95906.97
2022-10-31T05:56:24.593Z,95907.44
2022-10-31T05:58:52.192Z,95906.09
2022-10-31T06:01:21.765Z,95912.22
2022-10-31T06:03:50.876Z,95911.63
2022-10-31T06:06:18.526Z,95909.75
2022-10-31T06:08:51.112Z,95914.81
2022-10-31T06:11:18.751Z,95909.75
2022-10-31T06:13:46.356Z,95919.16
2022-10-31T06:16:13.998Z,95917.28
2022-10-31T06:18:41.644Z,95917.69
2022-10-31T06:21:12.449Z,95924.13
2022-10-31T06:23:42.543Z,95922.06
2022-10-31T06:26:10.149Z,95921.91
2022-10-31T06:28:37.753Z,95927.28
2022-10-31T06:31:05.509Z,95925.19
2022-10-31T06:33:33.147Z,95925.41
2022-10-31T06:36:00.765Z,95919.28
2022-10-31T06:38:32.951Z,95917.47
2022-10-31T06:41:04.254Z,95916.81
2022-10-31T06:43:32.135Z,95920.91
2022-10-31T06:45:59.986Z,95920.69
2022-10-31T06:48:27.558Z,95926.91
2022-10-31T06:50:59.537Z,95907.88
2022-10-31T06:53:30.537Z,95909.81
2022-10-31T06:56:00.449Z,95908.00
2022-10-31T06:58:28.036Z,95911.34
2022-10-31T07:00:55.741Z,95913.59
2022-10-31T07:03:23.608Z,95918.25
2022-10-31T07:05:51.224Z,95910.47
2022-10-31T07:08:18.891Z,95918.09
2022-10-31T07:10:53.726Z,95920.63
2022-10-31T07:13:25.658Z,95925.06
2022-10-31T07:15:56.735Z,95923.25
2022-10-31T07:18:24.368Z,95924.72
2022-10-31T07:20:53.341Z,95927.22
2022-10-31T07:23:21.130Z,95918.97
2022-10-31T07:25:50.229Z,95920.16
2022-10-31T07:28:17.834Z,95919.22
2022-10-31T07:30:45.439Z,95917.69
2022-10-31T07:33:13.073Z,95924.00
2022-10-31T07:35:40.660Z,95917.34
2022-10-31T07:38:09.794Z,95918.19
2022-10-31T07:40:37.460Z,95909.34
2022-10-31T07:43:10.186Z,95917.03
2022-10-31T07:45:40.815Z,95918.19
2022-10-31T07:48:09.977Z,95909.06
2022-10-31T07:50:37.655Z,95901.56
2022-10-31T07:53:07.235Z,95900.59
2022-10-31T07:55:35.614Z,95908.22
2022-10-31T07:58:05.246Z,95901.19
2022-10-31T08:00:35.469Z,95903.97
2022-10-31T08:03:05.145Z,95900.44
2022-10-31T08:05:34.629Z,95896.94
2022-10-31T08:08:03.066Z,95899.31
2022-10-31T08:10:31.145Z,95891.44
2022-10-31T08:13:00.116Z,95891.66
2022-10-31T08:15:28.257Z,95888.59
2022-10-31T08:17:57.680Z,95886.31
2022-10-31T08:20:25.748Z,95884.22
2022-10-31T08:22:58.052Z,95872.03
2022-10-31T08:25:26.324Z,95870.13
2022-10-31T08:27:55.015Z,95862.41
2022-10-31T08:30:24.260Z,95860.88
2022-10-31T08:33:01.444Z,95850.03
2022-10-31T08:35:30.823Z,95848.72
2022-10-31T08:37:59.477Z,95842.22
2022-10-31T08:40:31.551Z,95839.47
2022-10-31T08:43:01.217Z,95833.50
2022-10-31T08:45:29.175Z,95830.28
2022-10-31T08:48:04.539Z,95828.13
2022-10-31T08:50:35.888Z,95831.56
2022-10-31T08:53:05.703Z,95829.63
2022-10-31T08:55:37.604Z,95816.59
2022-10-31T08:58:06.736Z,95816.94
2022-10-31T09:00:35.017Z,95810.19
2022-10-31T09:03:05.955Z,95816.63
2022-10-31T09:05:34.084Z,95807.34
2022-10-31T09:08:06.423Z,95805.34
2022-10-31T09:10:36.299Z,95799.16
2022-10-31T09:13:07.210Z,95790.19
2022-10-31T09:15:36.454Z,95791.56
2022-10-31T09:18:05.925Z,95787.38
2022-10-31T09:20:35.395Z,95778.97
2022-10-31T09:23:04.912Z,95774.75
2022-10-31T09:25:32.625Z,95773.59
2022-10-31T09:28:00.964Z,95766.13
2022-10-31T09:30:31.202Z,95772.72
2022-10-31T09:32:59.796Z,95782.50
2022-10-31T09:35:29.476Z,95772.66
2022-10-31T09:37:58.505Z,95769.25
2022-10-31T09:40:33.196Z,95767.75
2022-10-31T09:43:09.656Z,95755.84
2022-10-31T09:45:43.763Z,95754.06
2022-10-31T09:48:25.572Z,95755.63
2022-10-31T09:50:59.765Z,95754.47
2022-10-31T09:53:36.058Z,95748.25
2022-10-31T09:56:07.730Z,95751.25
2022-10-31T09:58:41.370Z,95745.41
2022-10-31T10:01:29.498Z,95733.69
2022-10-31T10:04:02.973Z,95737.13
2022-10-31T10:06:37.674Z,95742.03
2022-10-31T10:09:05.359Z,95740.22
2022-10-31T10:11:46.001Z,95744.03
2022-10-31T10:14:26.495Z,95729.53
2022-10-31T10:17:19.624Z,95739.94
2022-10-31T10:20:06.318Z,95740.28
2022-10-31T10:22:53.225Z,95734.44
2022-10-31T10:25:24.948Z,95721.84
2022-10-31T10:28:09.025Z,95723.84
2022-10-31T10:30:42.540Z,95720.00
2022-10-31T10:33:14.162Z,95727.44
2022-10-31T10:35:45.932Z,95718.47
2022-10-31T10:38:22.180Z,95719.41
2022-10-31T10:40:50.410Z,95720.94
2022-10-31T10:43:24.811Z,95713.00
2022-10-31T10:46:19.953Z,95715.25
2022-10-31T10:48:53.795Z,95723.97
2022-10-31T10:51:39.007Z,95709.41
2022-10-31T10:54:39.281Z,95713.78
2022-10-31T10:57:21.877Z,95701.56
2022-10-31T10:59:49.908Z,95704.44
2022-10-31T11:02:20.486Z,95703.66
2022-10-31T11:04:52.839Z,95701.50
2022-10-31T11:07:20.835Z,95692.16
2022-10-31T11:09:50.090Z,95696.53
2022-10-31T11:12:26.647Z,95685.28
2022-10-31T11:15:00.278Z,95675.91
2022-10-31T11:17:31.731Z,95684.41
2022-10-31T11:20:04.443Z,95678.63
2022-10-31T11:22:32.433Z,95680.91
2022-10-31T11:25:01.445Z,95679.69
2022-10-31T11:27:29.428Z,95681.31
2022-10-31T11:30:07.691Z,95670.34
2022-10-31T11:32:35.522Z,95666.06
2022-10-31T11:35:11.396Z,95666.34
2022-10-31T11:37:45.402Z,95659.47
2022-10-31T11:40:21.269Z,95646.91
2022-10-31T11:42:50.550Z,95651.88
2022-10-31T11:45:21.158Z,95652.91
2022-10-31T11:47:55.295Z,95649.47
2022-10-31T11:50:28.938Z,95645.31
2022-10-31T11:52:57.468Z,95641.41
2022-10-31T11:55:34.947Z,95645.44
2022-10-31T11:58:03.458Z,95631.88
2022-10-31T12:00:33.527Z,95634.88
2022-10-31T12:03:23.133Z,95637.81
2022-10-31T12:05:56.144Z,95633.16
2022-10-31T12:08:24.062Z,95625.97
2022-10-31T12:11:04.146Z,95630.34
2022-10-31T12:13:36.014Z,95624.09
2022-10-31T12:16:10.177Z,95622.03
2022-10-31T12:19:01.366Z,95627.06
2022-10-31T12:21:47.067Z,95620.59
2022-10-31T12:24:27.732Z,95626.38
2022-10-31T12:27:19.713Z,95614.91
2022-10-31T12:30:04.949Z,95610.03
2022-10-31T12:32:42.984Z,95623.97
2022-10-31T12:35:26.850Z,95614.41
2022-10-31T12:38:08.740Z,95600.50
2022-10-31T12:40:53.994Z,95608.78
2022-10-31T12:43:36.359Z,95600.94
2022-10-31T12:46:06.657Z,95592.72
2022-10-31T12:48:57.434Z,95603.72
2022-10-31T12:51:35.294Z,95599.47
2022-10-31T12:54:24.448Z,95593.31
2022-10-31T12:57:04.373Z,95584.53
2022-10-31T12:59:38.736Z,95581.31
2022-10-31T13:02:16.003Z,95570.72
2022-10-31T13:04:50.029Z,95570.00
2022-10-31T13:07:22.309Z,95568.56
2022-10-31T13:09:58.034Z,95566.69
2022-10-31T13:12:30.059Z,95561.72
2022-10-31T13:15:06.770Z,95561.06
2022-10-31T13:17:39.030Z,95561.53
2022-10-31T13:20:27.651Z,95550.75
2022-10-31T13:22:58.906Z,95561.53
2022-10-31T13:25:32.295Z,95551.19
2022-10-31T13:28:03.573Z,95554.13
2022-10-31T13:30:35.468Z,95543.00
2022-10-31T13:33:07.799Z,95548.53
2022-10-31T13:35:44.319Z,95542.97
2022-10-31T13:38:19.542Z,95545.66
2022-10-31T13:40:53.644Z,95542.25
2022-10-31T13:43:31.987Z,95543.88
2022-10-31T13:46:01.093Z,95538.38
2022-10-31T13:48:46.380Z,95538.16
2022-10-31T13:51:14.003Z,95538.84
2022-10-31T13:53:59.744Z,95536.50
2022-10-31T13:56:29.636Z,95531.22
2022-10-31T13:59:22.121Z,95531.25
2022-10-31T14:01:53.956Z,95529.84
2022-10-31T14:04:25.886Z,95537.44
2022-10-31T14:07:01.080Z,95533.28
2022-10-31T14:09:35.681Z,95526.50
2022-10-31T14:12:06.828Z,95524.03
2022-10-31T14:14:43.496Z,95516.88
2022-10-31T14:17:20.382Z,95513.47
2022-10-31T14:20:03.895Z,95503.81
2022-10-31T14:22:33.879Z,95505.88
2022-10-31T14:25:03.038Z,95506.88
2022-10-31T14:27:47.519Z,95512.84
2022-10-31T14:30:18.987Z,95509.66
2022-10-31T14:32:52.762Z,95507.75
2022-10-31T14:35:23.010Z,95503.84
2022-10-31T14:38:05.453Z,95494.69
2022-10-31T14:43:38.158Z,95490.91
2022-10-31T14:46:14.553Z,95490.22
2022-10-31T14:49:00.404Z,95486.88
2022-10-31T14:51:39.157Z,95477.84
2022-10-31T14:54:12.856Z,95488.19
2022-10-31T14:56:48.407Z,95478.28
2022-10-31T14:59:17.753Z,95482.63
2022-10-31T15:01:56.200Z,95485.78
2022-10-31T15:04:27.071Z,95486.88
2022-10-31T15:06:59.908Z,95485.94
2022-10-31T15:09:30.876Z,95477.97
2022-10-31T15:12:00.630Z,95472.69
2022-10-31T15:14:29.939Z,95466.94
2022-10-31T15:16:59.553Z,95473.63
2022-10-31T15:19:30.845Z,95460.78
2022-10-31T15:21:59.833Z,95466.50
2022-10-31T15:24:34.611Z,95458.78
2022-10-31T15:27:05.116Z,95462.38
2022-10-31T15:29:33.673Z,95456.94
2022-10-31T15:32:02.954Z,95453.94
2022-10-31T15:34:38.732Z,95461.59
2022-10-31T15:37:07.137Z,95453.03
2022-10-31T15:39:35.414Z,95463.63
2022-10-31T15:42:05.458Z,95466.59
2022-10-31T15:44:37.364Z,95463.75
2022-10-31T15:47:10.937Z,95462.16
2022-10-31T15:49:49.079Z,95463.13
2022-10-31T15:52:20.636Z,95470.44
2022-10-31T15:54:56.274Z,95469.34
2022-10-31T15:57:27.063Z,95474.03
2022-10-31T15:59:55.717Z,95469.72
2022-10-31T16:02:25.606Z,95468.13
2022-10-31T16:05:01.471Z,95467.94
2022-10-31T16:07:31.274Z,95470.16
2022-10-31T16:10:00.496Z,95470.16
2022-10-31T16:12:33.835Z,95471.22
2022-10-31T16:15:04.232Z,95468.97
2022-10-31T16:17:32.185Z,95477.94
2022-10-31T16:20:07.406Z,95476.97
2022-10-31T16:22:38.286Z,95479.31
2022-10-31T16:25:15.036Z,95483.66
2022-10-31T16:27:54.394Z,95485.84
2022-10-31T16:30:42.795Z,95488.25
2022-10-31T16:33:29.938Z,95491.75
2022-10-31T16:36:15.809Z,95490.38
2022-10-31T16:38:47.874Z,95504.00
2022-10-31T16:41:15.485Z,95500.28
2022-10-31T16:43:43.153Z,95502.94
2022-10-31T16:46:16.304Z,95500.13
2022-10-31T16:48:43.978Z,95492.91
2022-10-31T16:51:12.994Z,95507.56
2022-10-31T16:53:45.642Z,95508.00
2022-10-31T16:56:21.921Z,95516.44
2022-10-31T16:58:49.909Z,95514.63
2022-10-31T17:01:18.275Z,95512.72
2022-10-31T17:03:46.087Z,95510.41
2022-10-31T17:06:16.017Z,95524.13
2022-10-31T17:08:43.859Z,95513.91
2022-10-31T17:11:16.848Z,95520.88
2022-10-31T17:13:44.580Z,95530.44
2022-10-31T17:16:15.176Z,95527.81
2022-10-31T17:18:43.803Z,95527.19
2022-10-31T17:21:17.811Z,95520.94
2022-10-31T17:23:45.526Z,95528.59
2022-10-31T17:26:13.329Z,95525.31
2022-10-31T17:28:41.036Z,95524.94
2022-10-31T17:31:19.945Z,95525.81
2022-10-31T17:33:47.624Z,95514.03
2022-10-31T17:36:16.627Z,95520.22
2022-10-31T17:38:44.257Z,95521.56
2022-10-31T17:41:12.306Z,95525.84
2022-10-31T17:43:40.431Z,95523.69
2022-10-31T17:46:08.150Z,95516.50
2022-10-31T17:48:36.463Z,95520.97
2022-10-31T17:51:05.128Z,95514.91
2022-10-31T17:53:35.684Z,95519.97
2022-10-31T17:56:04.728Z,95508.22
2022-10-31T17:58:33.159Z,95520.25
2022-10-31T18:01:00.904Z,95507.06
2022-10-31T18:03:35.882Z,95517.06
2022-10-31T18:06:03.602Z,95512.00
2022-10-31T18:08:33.139Z,95515.59
2022-10-31T18:11:09.196Z,95514.53
2022-10-31T18:13:37.406Z,95516.44
2022-10-31T18:16:09.009Z,95511.31
2022-10-31T18:18:38.548Z,95515.00
2022-10-31T18:21:09.437Z,95514.59
2022-10-31T18:23:37.181Z,95519.84
2022-10-31T18:26:08.710Z,95519.91
2022-10-31T18:28:37.477Z,95509.59
2022-10-31T18:31:05.510Z,95511.50
2022-10-31T18:33:33.142Z,95516.69
2022-10-31T18:36:06.069Z,95504.59
2022-10-31T18:38:34.412Z,95506.63
2022-10-31T18:41:02.048Z,95508.53
2022-10-31T18:43:31.091Z,95503.22
2022-10-31T18:46:02.323Z,95508.44
2022-10-31T18:48:31.359Z,95507.88
2022-10-31T18:50:59.080Z,95504.09
2022-10-31T18:53:31.201Z,95504.94
2022-10-31T18:55:59.775Z,95504.22
2022-10-31T18:58:28.275Z,95499.41
2022-10-31T19:00:57.437Z,95503.97
2022-10-31T19:03:27.311Z,95504.81
2022-10-31T19:05:55.661Z,95503.78
2022-10-31T19:08:23.601Z,95502.69
2022-10-31T19:10:51.394Z,95502.44
2022-10-31T19:13:19.148Z,95501.34
2022-10-31T19:15:46.923Z,95503.31
2022-10-31T19:18:15.975Z,95509.81
2022-10-31T19:20:43.679Z,95506.34
2022-10-31T19:23:12.422Z,95498.81
2022-10-31T19:25:40.420Z,95500.16
2022-10-31T19:28:08.489Z,95504.22
2022-10-31T19:30:36.180Z,95512.13
2022-10-31T19:33:03.882Z,95502.19
2022-10-31T19:35:32.897Z,95511.34
2022-10-31T19:38:00.836Z,95507.09
2022-10-31T19:40:28.662Z,95503.28
2022-10-31T19:42:56.259Z,95497.13
2022-10-31T19:45:23.871Z,95503.03
2022-10-31T19:47:51.515Z,95499.03
2022-10-31T19:50:19.282Z,95507.91
2022-10-31T19:52:48.270Z,95502.00
2022-10-31T19:55:17.905Z,95510.41
2022-10-31T19:58:01.323Z,95516.91
2022-10-31T20:00:29.939Z,95513.09
2022-10-31T20:02:57.569Z,95511.75
2022-10-31T20:05:25.353Z,95500.13
2022-10-31T20:07:54.317Z,95516.38
2022-10-31T20:10:21.941Z,95509.88
2022-10-31T20:12:51.829Z,95510.72
2022-10-31T20:15:19.454Z,95514.78
2022-10-31T20:17:47.081Z,95512.09
2022-10-31T20:20:14.899Z,95507.50
2022-10-31T20:22:43.108Z,95516.16
2022-10-31T20:25:12.073Z,95509.63
2022-10-31T20:27:39.682Z,95516.16
2022-10-31T20:30:10.459Z,95514.28
2022-10-31T20:32:38.172Z,95511.28
2022-10-31T20:35:06.338Z,95521.03
2022-10-31T20:37:33.957Z,95516.72
2022-10-31T20:40:01.690Z,95524.84
2022-10-31T20:42:30.719Z,95522.41
2022-10-31T20:44:58.340Z,95519.72
2022-10-31T20:47:26.056Z,95530.25
2022-10-31T20:49:53.757Z,95524.59
2022-10-31T20:52:21.606Z,95525.69
2022-10-31T20:54:49.358Z,95519.22
2022-10-31T20:57:17.036Z,95525.41
2022-10-31T20:59:46.004Z,95531.66
2022-10-31T21:02:13.799Z,95530.28
2022-10-31T21:04:41.450Z,95521.38
2022-10-31T21:07:09.668Z,95528.13
2022-10-31T21:09:37.289Z,95521.66
2022-10-31T21:12:05.720Z,95523.28
2022-10-31T21:14:33.527Z,95525.97
2022-10-31T21:17:02.640Z,95521.91
2022-10-31T21:19:30.264Z,95518.94
2022-10-31T21:21:58.066Z,95517.84
2022-10-31T21:24:27.855Z,95524.34
2022-10-31T21:26:58.983Z,95521.91
2022-10-31T21:29:26.604Z,95520.81
2022-10-31T21:31:54.349Z,95517.59
2022-10-31T21:34:23.363Z,95511.09
2022-10-31T21:36:50.983Z,95526.47
2022-10-31T21:39:18.622Z,95524.31
2022-10-31T21:41:46.324Z,95521.66
2022-10-31T21:44:13.938Z,95519.22
2022-10-31T21:46:41.574Z,95518.13
2022-10-31T21:49:11.756Z,95512.72
2022-10-31T21:51:42.669Z,95512.72
2022-10-31T21:54:33.170Z,95514.59
2022-10-31T21:57:03.249Z,95514.88
2022-10-31T21:59:31.488Z,95511.09
2022-10-31T22:02:00.654Z,95508.13
2022-10-31T22:04:30.299Z,95510.56
2022-10-31T22:06:59.289Z,95504.63
2022-10-31T22:09:26.997Z,95497.59
2022-10-31T22:11:54.646Z,95500.81
2022-10-31T22:14:22.307Z,95500.81
2022-10-31T22:16:49.906Z,95499.47
2022-10-31T22:19:17.699Z,95500.28
2022-10-31T22:21:47.410Z,95499.75
2022-10-31T22:24:20.112Z,95508.41
2022-10-31T22:26:48.112Z,95501.09
2022-10-31T22:29:17.246Z,95487.84
2022-10-31T22:31:48.534Z,95490.56
2022-10-31T22:34:20.770Z,95494.31
2022-10-31T22:36:48.445Z,95487.28
2022-10-31T22:39:20.201Z,95484.88
2022-10-31T22:41:47.875Z,95486.47
2022-10-31T22:44:18.129Z,95484.03
2022-10-31T22:46:45.745Z,95477.53
2022-10-31T22:49:15.754Z,95478.88
2022-10-31T22:51:44.899Z,95485.38
2022-10-31T22:54:15.543Z,95482.13
2022-10-31T22:56:44.553Z,95489.69
2022-10-31T23:04:33.615Z,95493.38
2022-10-31T23:07:04.062Z,95493.63
2022-10-31T23:09:31.810Z,95495.53
2022-10-31T23:12:19.448Z,95498.75
2022-10-31T23:14:46.106Z,95487.97
2022-10-31T23:17:17.627Z,95494.44
2022-10-31T23:19:48.573Z,95498.22
2022-10-31T23:22:16.174Z,95490.38
2022-10-31T23:24:45.576Z,95483.66
2022-10-31T23:27:14.349Z,95489.03
2022-10-31T23:29:44.940Z,95489.56
2022-10-31T23:32:16.315Z,95487.38
2022-10-31T23:34:49.331Z,95498.69
2022-10-31T23:37:18.191Z,95494.09
2022-10-31T23:39:45.988Z,95491.13
2022-10-31T23:42:14.066Z,95487.88
2022-10-31T23:44:41.673Z,95492.69
2022-10-31T23:47:09.479Z,95489.97
2022-10-31T23:49:37.154Z,95493.19
2022-10-31T23:52:07.418Z,95488.91
2022-10-31T23:54:35.244Z,95484.03
2022-10-31T23:57:05.184Z,95485.09
2022-10-31T23:59:36.709Z,95481.34
